Liberty — WDD2088 — position and weather

sailwx.info

Track history (hours):
 
Tides and Currents Weather Stations Pressure Air Temp Water Temp Dewpoint Dewpoint Depression Visibility Wind Speed Wind Dir Waves Ship Positions

Liberty

Owner: HORIZON 82 LEASING LLC, Provo, UT. More information available from US FCC via Universal Licensing System.

Last reported at 2015-May-22 21:30 UTC. Time now 2015-May-22 22:12 UTC.
Position N 48°31' W 122°36'.

Length 25 m; draft 2.2 m.

MMSI: 367110770.

Date/timePositionNaut miles runAvg speedWind from/ knotsBaromVisibWave heightAir tempDewpointWater temp
2015-May-22 21:30N 48°31' W 122°36'0 0.1
2015-May-22 20:30N 48°31' W 122°36'0 0.0
2015-May-22 19:30N 48°31' W 122°36'0 0.0
2015-May-22 18:24N 48°31' W 122°36'0 0.0
2015-May-22 17:30N 48°31' W 122°36'0 0.0
2015-May-22 16:30N 48°31' W 122°36'0 0.0
2015-May-22 15:30N 48°31' W 122°36'0 0.0
2015-May-22 14:30N 48°31' W 122°36'0 0.0
2015-May-22 13:30N 48°31' W 122°36'0 0.0
2015-May-22 12:30N 48°31' W 122°36'0 0.0
2015-May-22 11:30N 48°31' W 122°36'0 0.0
2015-May-22 10:30N 48°31' W 122°36'0 0.0
2015-May-22 09:30N 48°31' W 122°36'0 0.0
2015-May-22 08:24N 48°31' W 122°36'0 0.0
2015-May-22 07:30N 48°31' W 122°36'0 0.0
2015-May-22 06:30N 48°31' W 122°36'0 0.0
2015-May-22 05:12N 48°31' W 122°36'0 0.0
2015-May-22 04:30N 48°31' W 122°36'0 0.0
2015-May-22 03:18N 48°31' W 122°36'0 0.0
2015-May-22 02:30N 48°31' W 122°36'0 0.0
2015-May-22 01:30N 48°31' W 122°36'0 0.0
2015-May-22 00:30N 48°31' W 122°36'0 0.0
2015-May-21 23:30N 48°31' W 122°36'0 0.0
2015-May-21 22:30N 48°31' W 122°36'0 0.0
2015-May-21 21:30N 48°31' W 122°36'0 0.0
2015-May-21 20:18N 48°31' W 122°36'0 0.0
2015-May-21 19:30N 48°31' W 122°36'0 0.0
2015-May-21 18:30N 48°31' W 122°36'0 0.0
2015-May-21 17:30N 48°31' W 122°36'0 0.0
2015-May-21 16:30N 48°31' W 122°36'0 0.0
2015-May-21 15:30N 48°31' W 122°36'0 0.0
2015-May-21 14:30N 48°31' W 122°36'0 0.0
2015-May-21 13:18N 48°31' W 122°36'0 0.0
2015-May-21 12:30N 48°31' W 122°36'0 0.0
2015-May-21 11:30N 48°31' W 122°36'0 0.0
2015-May-21 10:30N 48°31' W 122°36'0 0.0
2015-May-21 09:30N 48°31' W 122°36'0 0.0
2015-May-21 08:30N 48°31' W 122°36'0 0.0
2015-May-21 07:30N 48°31' W 122°36'0 0.0
2015-May-21 06:24N 48°31' W 122°36'0 0.0
2015-May-21 05:30N 48°31' W 122°36'0 0.0
2015-May-21 04:30N 48°31' W 122°36'0 0.0
2015-May-21 03:30N 48°31' W 122°36'0 0.4
2015-May-21 02:33N 48°31' W 122°36'7 6.6
2015-May-21 01:32N 48°25' W 122°30'0 9.5
2015-May-21 01:32N 48°25' W 122°30'5 2.4
2015-May-20 23:30N 48°21' W 122°32'1410.4
2015-May-20 22:11N 48°07' W 122°30'810.8
2015-May-20 21:25N 48°01' W 122°22'910.2
2015-May-20 20:33N 47°52' W 122°24'610.5
2015-May-20 20:00N 47°47' W 122°27'4 9.7
2015-May-20 19:33N 47°43' W 122°26'110.5
2015-May-20 19:30N 47°42' W 122°25'2 2.6
2015-May-20 18:33N 47°40' W 122°24'0 4.4
2015-May-20 18:29N 47°40' W 122°23'2 1.3
2015-May-20 16:54N 47°39' W 122°20'0 0.0
2015-May-20 15:24N 47°39' W 122°20'0 0.0
2015-May-20 14:03N 47°39' W 122°20'0 0.0
2015-May-20 13:33N 47°39' W 122°20'0 0.0
2015-May-20 13:33N 47°39' W 122°20'0 0.0
2015-May-20 12:15N 47°39' W 122°20'0 0.0
2015-May-20 11:42N 47°39' W 122°20'0 0.0
2015-May-20 10:09N 47°39' W 122°20'0 0.0
2015-May-20 08:09N 47°39' W 122°20'0 0.0
2015-May-20 08:09N 47°39' W 122°20'0 0.0
2015-May-20 07:09N 47°39' W 122°20'0 0.0
2015-May-20 07:09N 47°39' W 122°20'0 0.0
2015-May-20 06:33N 47°39' W 122°20'0 0.0
2015-May-20 05:21N 47°39' W 122°20'0 0.0
2015-May-20 04:33N 47°39' W 122°20'0 0.0
2015-May-20 04:33N 47°39' W 122°20'0 0.0
2015-May-20 03:33N 47°39' W 122°20'0 0.0
2015-May-20 03:33N 47°39' W 122°20'0 0.0
2015-May-20 02:30N 47°39' W 122°20'0 0.0
2015-May-20 01:42N 47°39' W 122°20'0 0.0
2015-May-20 01:27N 47°39' W 122°20'0 0.0
2015-May-20 01:27N 47°39' W 122°20'0 0.0
2015-May-20 00:24N 47°39' W 122°20'0 0.0
2015-May-19 22:51N 47°39' W 122°20'0 0.0
2015-May-19 10:30N 47°39' W 122°20'0 0.0
2015-May-19 07:24N 47°39' W 122°20'0 0.0
2015-May-19 06:24N 47°39' W 122°20'0 0.0
2015-May-19 05:18N 47°39' W 122°20'0 0.0
2015-May-19 02:36N 47°39' W 122°20'0 0.0
2015-May-18 23:45N 47°39' W 122°20'0 0.0
2015-May-18 23:15N 47°39' W 122°20'0 0.0
2015-May-18 23:12N 47°39' W 122°20'0 0.0
2015-May-18 17:21N 47°39' W 122°20'0 0.0
2015-May-18 11:30N 47°39' W 122°20'0 0.0
2015-May-18 11:30N 47°39' W 122°20'0 0.0
2015-May-18 05:21N 47°39' W 122°20'0 0.0
2015-May-18 05:21N 47°39' W 122°20'0 0.0
2015-May-18 04:30N 47°39' W 122°20'0 0.0
2015-May-18 02:54N 47°39' W 122°20'0 0.0
2015-May-18 02:33N 47°39' W 122°20'0 0.0
2015-May-17 23:27N 47°39' W 122°20'0 0.0
2015-May-17 21:12N 47°39' W 122°20'0 0.0
2015-May-17 20:12N 47°39' W 122°20'0 0.0
2015-May-17 18:36N 47°39' W 122°20'0 0.0
2015-May-17 16:30N 47°39' W 122°20'0 0.0
2015-May-17 13:18N 47°39' W 122°20'0 0.0
2015-May-17 12:42N 47°39' W 122°20'0 0.0
2015-May-17 12:12N 47°39' W 122°20'0 0.0
2015-May-17 07:27N 47°39' W 122°20'0 0.0
2015-May-16 19:30N 47°39' W 122°20'0 0.0
2015-May-16 16:09N 47°39' W 122°20'0 0.0
2015-May-16 15:24N 47°39' W 122°20'0 0.0
2015-May-16 14:21N 47°39' W 122°20'0 0.0
2015-May-16 12:39N 47°39' W 122°20'0 0.0
2015-May-16 11:30N 47°39' W 122°20'0 0.0
2015-May-16 09:27N 47°39' W 122°20'0 0.0
2015-May-16 08:15N 47°39' W 122°20'0 0.0
2015-May-16 06:27N 47°39' W 122°20'0 0.0
2015-May-16 02:30N 47°39' W 122°20'0 0.0
2015-May-16 01:12N 47°39' W 122°20'0 0.0
2015-May-16 00:09N 47°39' W 122°20'0 0.0
2015-May-15 20:33N 47°39' W 122°20'0 0.0
2015-May-15 19:33N 47°39' W 122°20'0 0.0
2015-May-15 18:21N 47°39' W 122°20'0 0.0
2015-May-15 17:33N 47°39' W 122°20'0 0.0
2015-May-15 16:33N 47°39' W 122°20'0 0.0
2015-May-15 15:33N 47°39' W 122°20'0 0.0
2015-May-15 14:21N 47°39' W 122°20'0 0.0
2015-May-15 13:21N 47°39' W 122°20'0 0.0
2015-May-15 12:33N 47°39' W 122°20'0 0.0
2015-May-15 11:33N 47°39' W 122°20'0 0.0
2015-May-15 10:33N 47°39' W 122°20'0 0.0
2015-May-15 09:33N 47°39' W 122°20'0 0.0
2015-May-15 08:33N 47°39' W 122°20'0 0.0
2015-May-15 07:33N 47°39' W 122°20'0 0.0
2015-May-15 06:33N 47°39' W 122°20'0 0.0
2015-May-15 05:33N 47°39' W 122°20'0 0.0
2015-May-15 04:33N 47°39' W 122°20'0 0.0
2015-May-15 03:33N 47°39' W 122°20'0 0.0
2015-May-15 02:33N 47°39' W 122°20'0 0.0
2015-May-15 01:33N 47°39' W 122°20'0 0.0
2015-May-15 00:33N 47°39' W 122°20'0 0.0
2015-May-14 22:33N 47°39' W 122°20'0 0.0
2015-May-14 21:15N 47°39' W 122°20'0 0.0
2015-May-14 20:33N 47°39' W 122°20'0 0.1
2015-May-14 20:03N 47°39' W 122°20'0 0.1
2015-May-14 19:30N 47°39' W 122°20'0 0.0
2015-May-14 19:18N 47°39' W 122°20'0 0.0
2015-May-14 18:33N 47°39' W 122°20'0 0.1
2015-May-14 18:12N 47°39' W 122°20'0 0.0
2015-May-14 17:33N 47°39' W 122°20'0 0.0
2015-May-14 17:12N 47°39' W 122°20'0 0.0
2015-May-14 15:57N 47°39' W 122°20'0 0.0
2015-May-14 15:33N 47°39' W 122°20'0 0.0
2015-May-14 15:21N 47°39' W 122°20'0 0.0
2015-May-14 14:21N 47°39' W 122°20'0 0.0
2015-May-14 14:21N 47°39' W 122°20'0 0.0
2015-May-14 13:30N 47°39' W 122°20'0 0.0
2015-May-14 12:24N 47°39' W 122°20'0 0.0
2015-May-14 12:00N 47°39' W 122°20'0 0.0
2015-May-14 11:30N 47°39' W 122°20'0 0.0
2015-May-14 11:21N 47°39' W 122°20'0 0.0
2015-May-14 10:24N 47°39' W 122°20'0 0.0
2015-May-14 09:33N 47°39' W 122°20'0 0.0
2015-May-14 08:45N 47°39' W 122°20'0 0.0
2015-May-14 08:24N 47°39' W 122°20'0 0.0
2015-May-14 07:27N 47°39' W 122°20'0 0.0
2015-May-14 06:54N 47°39' W 122°20'0 0.0
2015-May-14 06:30N 47°39' W 122°20'0 0.0
2015-May-14 05:15N 47°39' W 122°20'0 0.0
2015-May-14 04:33N 47°39' W 122°20'0 0.0
2015-May-14 03:39N 47°39' W 122°20'0 0.0
2015-May-14 03:33N 47°39' W 122°20'0 0.0
2015-May-14 02:33N 47°39' W 122°20'0 0.0
2015-May-14 02:33N 47°39' W 122°20'0 0.0
2015-May-14 01:27N 47°39' W 122°20'0 0.0
2015-May-14 00:30N 47°39' W 122°20'0 0.2
2015-May-14 00:18N 47°39' W 122°20'0 0.0
2015-May-13 23:33N 47°39' W 122°20'0 0.0
2015-May-13 23:27N 47°39' W 122°20'0 0.0
2015-May-13 22:33N 47°39' W 122°20'0 0.0
2015-May-13 22:27N 47°39' W 122°20'0 0.0
2015-May-13 21:33N 47°39' W 122°20'0 0.1
2015-May-13 21:27N 47°39' W 122°20'0 0.0
2015-May-13 20:33N 47°39' W 122°20'0 0.0
2015-May-13 20:27N 47°39' W 122°20'0 0.0
2015-May-13 19:33N 47°39' W 122°20'0 0.0
2015-May-13 19:21N 47°39' W 122°20'0 0.0
2015-May-13 18:33N 47°39' W 122°20'0 0.0
2015-May-13 18:21N 47°39' W 122°20'0 0.0
2015-May-13 17:30N 47°39' W 122°20'0 0.0
2015-May-13 16:45N 47°39' W 122°20'0 0.0
2015-May-13 16:33N 47°39' W 122°20'0 0.0
2015-May-13 16:30N 47°39' W 122°20'0 0.0
2015-May-13 15:33N 47°39' W 122°20'0 0.0
2015-May-13 15:30N 47°39' W 122°20'0 0.0
2015-May-13 14:33N 47°39' W 122°20'0 0.0
2015-May-13 13:45N 47°39' W 122°20'0 0.0
2015-May-13 13:21N 47°39' W 122°20'0 0.0
2015-May-13 13:09N 47°39' W 122°20'0 0.0
2015-May-13 12:33N 47°39' W 122°20'0 0.0
2015-May-13 12:24N 47°39' W 122°20'0 0.0
2015-May-13 11:33N 47°39' W 122°20'0 0.0
2015-May-13 11:24N 47°39' W 122°20'0 0.0
2015-May-13 10:30N 47°39' W 122°20'0 0.0
2015-May-13 10:08N 47°39' W 122°20'0 0.0
2015-May-13 09:18N 47°39' W 122°20'0 0.0
2015-May-13 08:21N 47°39' W 122°20'0 0.0
2015-May-13 07:53N 47°39' W 122°20'0 0.0
2015-May-13 07:26N 47°39' W 122°20'0 0.0
2015-May-13 07:17N 47°39' W 122°20'0 0.0
2015-May-13 06:32N 47°39' W 122°20'0 0.0
2015-May-13 06:32N 47°39' W 122°20'0 0.2
2015-May-13 06:17N 47°39' W 122°20'0 0.0
2015-May-13 05:26N 47°39' W 122°20'0 0.0
2015-May-13 04:32N 47°39' W 122°20'0 0.0
2015-May-13 04:32N 47°39' W 122°20'0 0.0
2015-May-13 03:32N 47°39' W 122°20'0 0.0
2015-May-13 03:32N 47°39' W 122°20'0 0.0
2015-May-13 02:32N 47°39' W 122°20'0 0.0
2015-May-13 02:11N 47°39' W 122°20'0 0.0
2015-May-13 01:23N 47°39' W 122°20'0 0.0
2015-May-13 01:11N 47°39' W 122°20'0 0.0
2015-May-13 00:17N 47°39' W 122°20'0 0.0
2015-May-12 23:56N 47°39' W 122°20'0 0.0
2015-May-12 23:29N 47°39' W 122°20'0 0.0
2015-May-12 23:26N 47°39' W 122°20'  
Track history (hours):
 
Tides and Currents Weather Stations Pressure Air Temp Water Temp Dewpoint Dewpoint Depression Visibility Wind Speed Wind Dir Waves Ship Positions

Liberty

Owner: HORIZON 82 LEASING LLC, Provo, UT. More information available from US FCC via Universal Licensing System.

Last reported at 2015-May-22 21:30 UTC. Time now 2015-May-22 22:12 UTC.
Position N 48°31' W 122°36'.

Length 25 m; draft 2.2 m.

MMSI: 367110770.

Date/timePositionNaut miles runAvg speedWind from/ knotsBaromVisibWave heightAir tempDewpointWater temp
2015-May-22 21:30N 48°31' W 122°36'0 0.1
2015-May-22 20:30N 48°31' W 122°36'0 0.0
2015-May-22 19:30N 48°31' W 122°36'0 0.0
2015-May-22 18:24N 48°31' W 122°36'0 0.0
2015-May-22 17:30N 48°31' W 122°36'0 0.0
2015-May-22 16:30N 48°31' W 122°36'0 0.0
2015-May-22 15:30N 48°31' W 122°36'0 0.0
2015-May-22 14:30N 48°31' W 122°36'0 0.0
2015-May-22 13:30N 48°31' W 122°36'0 0.0
2015-May-22 12:30N 48°31' W 122°36'0 0.0
2015-May-22 11:30N 48°31' W 122°36'0 0.0
2015-May-22 10:30N 48°31' W 122°36'0 0.0
2015-May-22 09:30N 48°31' W 122°36'0 0.0
2015-May-22 08:24N 48°31' W 122°36'0 0.0
2015-May-22 07:30N 48°31' W 122°36'0 0.0
2015-May-22 06:30N 48°31' W 122°36'0 0.0
2015-May-22 05:12N 48°31' W 122°36'0 0.0
2015-May-22 04:30N 48°31' W 122°36'0 0.0
2015-May-22 03:18N 48°31' W 122°36'0 0.0
2015-May-22 02:30N 48°31' W 122°36'0 0.0
2015-May-22 01:30N 48°31' W 122°36'0 0.0
2015-May-22 00:30N 48°31' W 122°36'0 0.0
2015-May-21 23:30N 48°31' W 122°36'0 0.0
2015-May-21 22:30N 48°31' W 122°36'0 0.0
2015-May-21 21:30N 48°31' W 122°36'0 0.0
2015-May-21 20:18N 48°31' W 122°36'0 0.0
2015-May-21 19:30N 48°31' W 122°36'0 0.0
2015-May-21 18:30N 48°31' W 122°36'0 0.0
2015-May-21 17:30N 48°31' W 122°36'0 0.0
2015-May-21 16:30N 48°31' W 122°36'0 0.0
2015-May-21 15:30N 48°31' W 122°36'0 0.0
2015-May-21 14:30N 48°31' W 122°36'0 0.0
2015-May-21 13:18N 48°31' W 122°36'0 0.0
2015-May-21 12:30N 48°31' W 122°36'0 0.0
2015-May-21 11:30N 48°31' W 122°36'0 0.0
2015-May-21 10:30N 48°31' W 122°36'0 0.0
2015-May-21 09:30N 48°31' W 122°36'0 0.0
2015-May-21 08:30N 48°31' W 122°36'0 0.0
2015-May-21 07:30N 48°31' W 122°36'0 0.0
2015-May-21 06:24N 48°31' W 122°36'0 0.0
2015-May-21 05:30N 48°31' W 122°36'0 0.0
2015-May-21 04:30N 48°31' W 122°36'0 0.0
2015-May-21 03:30N 48°31' W 122°36'0 0.4
2015-May-21 02:33N 48°31' W 122°36'7 6.6
2015-May-21 01:32N 48°25' W 122°30'0 9.5
2015-May-21 01:32N 48°25' W 122°30'5 2.4
2015-May-20 23:30N 48°21' W 122°32'1410.4
2015-May-20 22:11N 48°07' W 122°30'810.8
2015-May-20 21:25N 48°01' W 122°22'910.2
2015-May-20 20:33N 47°52' W 122°24'610.5
2015-May-20 20:00N 47°47' W 122°27'4 9.7
2015-May-20 19:33N 47°43' W 122°26'110.5
2015-May-20 19:30N 47°42' W 122°25'2 2.6
2015-May-20 18:33N 47°40' W 122°24'0 4.4
2015-May-20 18:29N 47°40' W 122°23'2 1.3
2015-May-20 16:54N 47°39' W 122°20'0 0.0
2015-May-20 15:24N 47°39' W 122°20'0 0.0
2015-May-20 14:03N 47°39' W 122°20'0 0.0
2015-May-20 13:33N 47°39' W 122°20'0 0.0
2015-May-20 13:33N 47°39' W 122°20'0 0.0
2015-May-20 12:15N 47°39' W 122°20'0 0.0
2015-May-20 11:42N 47°39' W 122°20'0 0.0
2015-May-20 10:09N 47°39' W 122°20'0 0.0
2015-May-20 08:09N 47°39' W 122°20'0 0.0
2015-May-20 08:09N 47°39' W 122°20'0 0.0
2015-May-20 07:09N 47°39' W 122°20'0 0.0
2015-May-20 07:09N 47°39' W 122°20'0 0.0
2015-May-20 06:33N 47°39' W 122°20'0 0.0
2015-May-20 05:21N 47°39' W 122°20'0 0.0
2015-May-20 04:33N 47°39' W 122°20'0 0.0
2015-May-20 04:33N 47°39' W 122°20'0 0.0
2015-May-20 03:33N 47°39' W 122°20'0 0.0
2015-May-20 03:33N 47°39' W 122°20'0 0.0
2015-May-20 02:30N 47°39' W 122°20'0 0.0
2015-May-20 01:42N 47°39' W 122°20'0 0.0
2015-May-20 01:27N 47°39' W 122°20'0 0.0
2015-May-20 01:27N 47°39' W 122°20'0 0.0
2015-May-20 00:24N 47°39' W 122°20'0 0.0
2015-May-19 22:51N 47°39' W 122°20'0 0.0
2015-May-19 10:30N 47°39' W 122°20'0 0.0
2015-May-19 07:24N 47°39' W 122°20'0 0.0
2015-May-19 06:24N 47°39' W 122°20'0 0.0
2015-May-19 05:18N 47°39' W 122°20'0 0.0
2015-May-19 02:36N 47°39' W 122°20'0 0.0
2015-May-18 23:45N 47°39' W 122°20'0 0.0
2015-May-18 23:15N 47°39' W 122°20'0 0.0
2015-May-18 23:12N 47°39' W 122°20'0 0.0
2015-May-18 17:21N 47°39' W 122°20'0 0.0
2015-May-18 11:30N 47°39' W 122°20'0 0.0
2015-May-18 11:30N 47°39' W 122°20'0 0.0
2015-May-18 05:21N 47°39' W 122°20'0 0.0
2015-May-18 05:21N 47°39' W 122°20'0 0.0
2015-May-18 04:30N 47°39' W 122°20'0 0.0
2015-May-18 02:54N 47°39' W 122°20'0 0.0
2015-May-18 02:33N 47°39' W 122°20'0 0.0
2015-May-17 23:27N 47°39' W 122°20'0 0.0
2015-May-17 21:12N 47°39' W 122°20'0 0.0
2015-May-17 20:12N 47°39' W 122°20'0 0.0
2015-May-17 18:36N 47°39' W 122°20'0 0.0
2015-May-17 16:30N 47°39' W 122°20'0 0.0
2015-May-17 13:18N 47°39' W 122°20'0 0.0
2015-May-17 12:42N 47°39' W 122°20'0 0.0
2015-May-17 12:12N 47°39' W 122°20'0 0.0
2015-May-17 07:27N 47°39' W 122°20'0 0.0
2015-May-16 19:30N 47°39' W 122°20'0 0.0
2015-May-16 16:09N 47°39' W 122°20'0 0.0
2015-May-16 15:24N 47°39' W 122°20'0 0.0
2015-May-16 14:21N 47°39' W 122°20'0 0.0
2015-May-16 12:39N 47°39' W 122°20'0 0.0
2015-May-16 11:30N 47°39' W 122°20'0 0.0
2015-May-16 09:27N 47°39' W 122°20'0 0.0
2015-May-16 08:15N 47°39' W 122°20'0 0.0
2015-May-16 06:27N 47°39' W 122°20'0 0.0
2015-May-16 02:30N 47°39' W 122°20'0 0.0
2015-May-16 01:12N 47°39' W 122°20'0 0.0
2015-May-16 00:09N 47°39' W 122°20'0 0.0
2015-May-15 20:33N 47°39' W 122°20'0 0.0
2015-May-15 19:33N 47°39' W 122°20'0 0.0
2015-May-15 18:21N 47°39' W 122°20'0 0.0
2015-May-15 17:33N 47°39' W 122°20'0 0.0
2015-May-15 16:33N 47°39' W 122°20'0 0.0
2015-May-15 15:33N 47°39' W 122°20'0 0.0
2015-May-15 14:21N 47°39' W 122°20'0 0.0
2015-May-15 13:21N 47°39' W 122°20'0 0.0
2015-May-15 12:33N 47°39' W 122°20'0 0.0
2015-May-15 11:33N 47°39' W 122°20'0 0.0
2015-May-15 10:33N 47°39' W 122°20'0 0.0
2015-May-15 09:33N 47°39' W 122°20'0 0.0
2015-May-15 08:33N 47°39' W 122°20'0 0.0
2015-May-15 07:33N 47°39' W 122°20'0 0.0
2015-May-15 06:33N 47°39' W 122°20'0 0.0
2015-May-15 05:33N 47°39' W 122°20'0 0.0
2015-May-15 04:33N 47°39' W 122°20'0 0.0
2015-May-15 03:33N 47°39' W 122°20'0 0.0
2015-May-15 02:33N 47°39' W 122°20'0 0.0
2015-May-15 01:33N 47°39' W 122°20'0 0.0
2015-May-15 00:33N 47°39' W 122°20'0 0.0
2015-May-14 22:33N 47°39' W 122°20'0 0.0
2015-May-14 21:15N 47°39' W 122°20'0 0.0
2015-May-14 20:33N 47°39' W 122°20'0 0.1
2015-May-14 20:03N 47°39' W 122°20'0 0.1
2015-May-14 19:30N 47°39' W 122°20'0 0.0
2015-May-14 19:18N 47°39' W 122°20'0 0.0
2015-May-14 18:33N 47°39' W 122°20'0 0.1
2015-May-14 18:12N 47°39' W 122°20'0 0.0
2015-May-14 17:33N 47°39' W 122°20'0 0.0
2015-May-14 17:12N 47°39' W 122°20'0 0.0
2015-May-14 15:57N 47°39' W 122°20'0 0.0
2015-May-14 15:33N 47°39' W 122°20'0 0.0
2015-May-14 15:21N 47°39' W 122°20'0 0.0
2015-May-14 14:21N 47°39' W 122°20'0 0.0
2015-May-14 14:21N 47°39' W 122°20'0 0.0
2015-May-14 13:30N 47°39' W 122°20'0 0.0
2015-May-14 12:24N 47°39' W 122°20'0 0.0
2015-May-14 12:00N 47°39' W 122°20'0 0.0
2015-May-14 11:30N 47°39' W 122°20'0 0.0
2015-May-14 11:21N 47°39' W 122°20'0 0.0
2015-May-14 10:24N 47°39' W 122°20'0 0.0
2015-May-14 09:33N 47°39' W 122°20'0 0.0
2015-May-14 08:45N 47°39' W 122°20'0 0.0
2015-May-14 08:24N 47°39' W 122°20'0 0.0
2015-May-14 07:27N 47°39' W 122°20'0 0.0
2015-May-14 06:54N 47°39' W 122°20'0 0.0
2015-May-14 06:30N 47°39' W 122°20'0 0.0
2015-May-14 05:15N 47°39' W 122°20'0 0.0
2015-May-14 04:33N 47°39' W 122°20'0 0.0
2015-May-14 03:39N 47°39' W 122°20'0 0.0
2015-May-14 03:33N 47°39' W 122°20'0 0.0
2015-May-14 02:33N 47°39' W 122°20'0 0.0
2015-May-14 02:33N 47°39' W 122°20'0 0.0
2015-May-14 01:27N 47°39' W 122°20'0 0.0
2015-May-14 00:30N 47°39' W 122°20'0 0.2
2015-May-14 00:18N 47°39' W 122°20'0 0.0
2015-May-13 23:33N 47°39' W 122°20'0 0.0
2015-May-13 23:27N 47°39' W 122°20'0 0.0
2015-May-13 22:33N 47°39' W 122°20'0 0.0
2015-May-13 22:27N 47°39' W 122°20'0 0.0
2015-May-13 21:33N 47°39' W 122°20'0 0.1
2015-May-13 21:27N 47°39' W 122°20'0 0.0
2015-May-13 20:33N 47°39' W 122°20'0 0.0
2015-May-13 20:27N 47°39' W 122°20'0 0.0
2015-May-13 19:33N 47°39' W 122°20'0 0.0
2015-May-13 19:21N 47°39' W 122°20'0 0.0
2015-May-13 18:33N 47°39' W 122°20'0 0.0
2015-May-13 18:21N 47°39' W 122°20'0 0.0
2015-May-13 17:30N 47°39' W 122°20'0 0.0
2015-May-13 16:45N 47°39' W 122°20'0 0.0
2015-May-13 16:33N 47°39' W 122°20'0 0.0
2015-May-13 16:30N 47°39' W 122°20'0 0.0
2015-May-13 15:33N 47°39' W 122°20'0 0.0
2015-May-13 15:30N 47°39' W 122°20'0 0.0
2015-May-13 14:33N 47°39' W 122°20'0 0.0
2015-May-13 13:45N 47°39' W 122°20'0 0.0
2015-May-13 13:21N 47°39' W 122°20'0 0.0
2015-May-13 13:09N 47°39' W 122°20'0 0.0
2015-May-13 12:33N 47°39' W 122°20'0 0.0
2015-May-13 12:24N 47°39' W 122°20'0 0.0
2015-May-13 11:33N 47°39' W 122°20'0 0.0
2015-May-13 11:24N 47°39' W 122°20'0 0.0
2015-May-13 10:30N 47°39' W 122°20'0 0.0
2015-May-13 10:08N 47°39' W 122°20'0 0.0
2015-May-13 09:18N 47°39' W 122°20'0 0.0
2015-May-13 08:21N 47°39' W 122°20'0 0.0
2015-May-13 07:53N 47°39' W 122°20'0 0.0
2015-May-13 07:26N 47°39' W 122°20'0 0.0
2015-May-13 07:17N 47°39' W 122°20'0 0.0
2015-May-13 06:32N 47°39' W 122°20'0 0.0
2015-May-13 06:32N 47°39' W 122°20'0 0.2
2015-May-13 06:17N 47°39' W 122°20'0 0.0
2015-May-13 05:26N 47°39' W 122°20'0 0.0
2015-May-13 04:32N 47°39' W 122°20'0 0.0
2015-May-13 04:32N 47°39' W 122°20'0 0.0
2015-May-13 03:32N 47°39' W 122°20'0 0.0
2015-May-13 03:32N 47°39' W 122°20'0 0.0
2015-May-13 02:32N 47°39' W 122°20'0 0.0
2015-May-13 02:11N 47°39' W 122°20'0 0.0
2015-May-13 01:23N 47°39' W 122°20'0 0.0
2015-May-13 01:11N 47°39' W 122°20'0 0.0
2015-May-13 00:17N 47°39' W 122°20'0 0.0
2015-May-12 23:56N 47°39' W 122°20'0 0.0
2015-May-12 23:29N 47°39' W 122°20'0 0.0
2015-May-12 23:26N 47°39' W 122°20'  

Dump ship's entire track history